sensor_id;sensor_type;location;lat;lon;timestamp;temperature;humidity
77592;DHT22;66891;46.884;17.436;2023-08-24T00:02:18;22.49;93.54
77592;DHT22;66891;46.884;17.436;2023-08-24T00:04:45;22.46;93.43
77592;DHT22;66891;46.884;17.436;2023-08-24T00:07:12;22.52;93.40
77592;DHT22;66891;46.884;17.436;2023-08-24T00:09:41;22.52;93.16
77592;DHT22;66891;46.884;17.436;2023-08-24T00:12:08;22.55;93.07
77592;DHT22;66891;46.884;17.436;2023-08-24T00:14:36;22.56;93.12
77592;DHT22;66891;46.884;17.436;2023-08-24T00:17:04;22.48;93.54
77592;DHT22;66891;46.884;17.436;2023-08-24T00:19:32;22.60;93.20
77592;DHT22;66891;46.884;17.436;2023-08-24T00:21:59;22.60;92.89
77592;DHT22;66891;46.884;17.436;2023-08-24T00:24:26;22.57;93.11
77592;DHT22;66891;46.884;17.436;2023-08-24T00:26:55;22.51;93.14
77592;DHT22;66891;46.884;17.436;2023-08-24T00:29:22;22.46;93.19
77592;DHT22;66891;46.884;17.436;2023-08-24T00:31:49;22.44;93.38
77592;DHT22;66891;46.884;17.436;2023-08-24T00:34:17;22.44;93.48
77592;DHT22;66891;46.884;17.436;2023-08-24T00:36:44;22.41;93.61
77592;DHT22;66891;46.884;17.436;2023-08-24T00:39:11;22.35;93.73
77592;DHT22;66891;46.884;17.436;2023-08-24T00:41:39;22.36;93.70
77592;DHT22;66891;46.884;17.436;2023-08-24T00:44:09;22.35;93.67
77592;DHT22;66891;46.884;17.436;2023-08-24T00:46:36;22.32;93.84
77592;DHT22;66891;46.884;17.436;2023-08-24T00:49:04;22.49;93.28
77592;DHT22;66891;46.884;17.436;2023-08-24T00:51:31;22.56;92.81
77592;DHT22;66891;46.884;17.436;2023-08-24T00:53:58;22.35;93.62
77592;DHT22;66891;46.884;17.436;2023-08-24T00:56:26;22.29;93.91
77592;DHT22;66891;46.884;17.436;2023-08-24T00:58:54;22.32;93.71
77592;DHT22;66891;46.884;17.436;2023-08-24T01:01:23;22.42;93.40
77592;DHT22;66891;46.884;17.436;2023-08-24T01:03:51;22.29;93.94
77592;DHT22;66891;46.884;17.436;2023-08-24T01:06:19;22.18;94.14
77592;DHT22;66891;46.884;17.436;2023-08-24T01:08:46;22.17;94.46
77592;DHT22;66891;46.884;17.436;2023-08-24T01:11:20;22.12;94.38
77592;DHT22;66891;46.884;17.436;2023-08-24T01:13:58;22.18;94.10
77592;DHT22;66891;46.884;17.436;2023-08-24T01:16:29;22.15;94.11
77592;DHT22;66891;46.884;17.436;2023-08-24T01:18:59;22.22;93.84
77592;DHT22;66891;46.884;17.436;2023-08-24T01:21:27;22.18;93.74
77592;DHT22;66891;46.884;17.436;2023-08-24T01:24:04;22.05;94.05
77592;DHT22;66891;46.884;17.436;2023-08-24T01:26:33;22.00;94.34
77592;DHT22;66891;46.884;17.436;2023-08-24T01:29:01;22.07;93.93
77592;DHT22;66891;46.884;17.436;2023-08-24T01:31:31;22.08;94.11
77592;DHT22;66891;46.884;17.436;2023-08-24T01:33:58;22.18;93.38
77592;DHT22;66891;46.884;17.436;2023-08-24T01:36:26;22.15;93.65
77592;DHT22;66891;46.884;17.436;2023-08-24T01:38:59;22.11;93.74
77592;DHT22;66891;46.884;17.436;2023-08-24T01:41:36;22.17;93.72
77592;DHT22;66891;46.884;17.436;2023-08-24T01:44:12;22.07;94.43
77592;DHT22;66891;46.884;17.436;2023-08-24T01:46:42;21.97;94.79
77592;DHT22;66891;46.884;17.436;2023-08-24T01:49:12;22.00;94.81
77592;DHT22;66891;46.884;17.436;2023-08-24T01:51:41;21.93;94.94
77592;DHT22;66891;46.884;17.436;2023-08-24T01:54:09;21.88;94.96
77592;DHT22;66891;46.884;17.436;2023-08-24T01:56:37;21.86;95.20
77592;DHT22;66891;46.884;17.436;2023-08-24T01:59:05;21.83;95.17
77592;DHT22;66891;46.884;17.436;2023-08-24T02:01:32;21.81;95.08
77592;DHT22;66891;46.884;17.436;2023-08-24T02:03:59;21.80;95.15
77592;DHT22;66891;46.884;17.436;2023-08-24T02:06:27;21.74;95.13
77592;DHT22;66891;46.884;17.436;2023-08-24T02:08:54;21.91;94.60
77592;DHT22;66891;46.884;17.436;2023-08-24T02:11:21;21.87;94.90
77592;DHT22;66891;46.884;17.436;2023-08-24T02:13:50;21.77;95.19
77592;DHT22;66891;46.884;17.436;2023-08-24T02:16:17;21.73;95.28
77592;DHT22;66891;46.884;17.436;2023-08-24T02:18:44;21.70;95.34
77592;DHT22;66891;46.884;17.436;2023-08-24T02:21:12;21.69;95.39
77592;DHT22;66891;46.884;17.436;2023-08-24T02:23:41;21.69;95.46
77592;DHT22;66891;46.884;17.436;2023-08-24T02:26:08;21.67;95.35
77592;DHT22;66891;46.884;17.436;2023-08-24T02:28:37;21.66;95.17
77592;DHT22;66891;46.884;17.436;2023-08-24T02:31:06;21.64;95.33
77592;DHT22;66891;46.884;17.436;2023-08-24T02:33:34;21.56;95.39
77592;DHT22;66891;46.884;17.436;2023-08-24T02:36:01;21.64;95.26
77592;DHT22;66891;46.884;17.436;2023-08-24T02:38:29;21.66;95.19
77592;DHT22;66891;46.884;17.436;2023-08-24T02:41:03;21.76;94.71
77592;DHT22;66891;46.884;17.436;2023-08-24T02:43:31;21.93;94.12
77592;DHT22;66891;46.884;17.436;2023-08-24T02:46:02;21.73;94.75
77592;DHT22;66891;46.884;17.436;2023-08-24T02:48:32;21.57;95.41
77592;DHT22;66891;46.884;17.436;2023-08-24T02:51:01;21.59;95.40
77592;DHT22;66891;46.884;17.436;2023-08-24T02:53:30;21.63;95.57
77592;DHT22;66891;46.884;17.436;2023-08-24T02:55:58;21.64;95.32
77592;DHT22;66891;46.884;17.436;2023-08-24T02:58:25;21.56;95.27
77592;DHT22;66891;46.884;17.436;2023-08-24T03:00:54;21.53;95.17
77592;DHT22;66891;46.884;17.436;2023-08-24T03:03:21;21.63;94.97
77592;DHT22;66891;46.884;17.436;2023-08-24T03:05:57;21.67;94.69
77592;DHT22;66891;46.884;17.436;2023-08-24T03:08:25;21.51;95.17
77592;DHT22;66891;46.884;17.436;2023-08-24T03:10:52;21.46;95.17
77592;DHT22;66891;46.884;17.436;2023-08-24T03:13:20;21.43;95.30
77592;DHT22;66891;46.884;17.436;2023-08-24T03:15:47;21.40;95.44
77592;DHT22;66891;46.884;17.436;2023-08-24T03:18:16;21.39;95.45
77592;DHT22;66891;46.884;17.436;2023-08-24T03:20:44;21.59;94.72
77592;DHT22;66891;46.884;17.436;2023-08-24T03:23:12;21.60;94.54
77592;DHT22;66891;46.884;17.436;2023-08-24T03:25:41;21.53;95.06
77592;DHT22;66891;46.884;17.436;2023-08-24T03:28:09;21.50;94.88
77592;DHT22;66891;46.884;17.436;2023-08-24T03:30:38;21.39;95.30
77592;DHT22;66891;46.884;17.436;2023-08-24T03:33:06;21.43;94.89
77592;DHT22;66891;46.884;17.436;2023-08-24T03:35:33;21.45;94.41
77592;DHT22;66891;46.884;17.436;2023-08-24T03:38:01;21.33;94.99
77592;DHT22;66891;46.884;17.436;2023-08-24T03:40:30;21.23;95.37
77592;DHT22;66891;46.884;17.436;2023-08-24T03:42:57;21.06;95.81
77592;DHT22;66891;46.884;17.436;2023-08-24T03:45:24;21.09;95.76
77592;DHT22;66891;46.884;17.436;2023-08-24T03:47:52;21.31;94.82
77592;DHT22;66891;46.884;17.436;2023-08-24T03:50:20;21.29;94.84
77592;DHT22;66891;46.884;17.436;2023-08-24T03:52:51;21.05;95.69
77592;DHT22;66891;46.884;17.436;2023-08-24T03:55:18;20.94;96.07
77592;DHT22;66891;46.884;17.436;2023-08-24T03:57:47;20.84;96.14
77592;DHT22;66891;46.884;17.436;2023-08-24T04:00:16;20.84;96.25
77592;DHT22;66891;46.884;17.436;2023-08-24T04:02:44;20.80;96.25
77592;DHT22;66891;46.884;17.436;2023-08-24T04:05:11;20.80;96.37
77592;DHT22;66891;46.884;17.436;2023-08-24T04:07:39;20.81;96.26
77592;DHT22;66891;46.884;17.436;2023-08-24T04:10:08;20.75;96.50
77592;DHT22;66891;46.884;17.436;2023-08-24T04:12:36;20.74;96.43
77592;DHT22;66891;46.884;17.436;2023-08-24T04:15:06;20.77;96.71
77592;DHT22;66891;46.884;17.436;2023-08-24T04:17:33;20.81;96.52
77592;DHT22;66891;46.884;17.436;2023-08-24T04:20:00;20.87;96.22
77592;DHT22;66891;46.884;17.436;2023-08-24T04:22:28;21.01;95.99
77592;DHT22;66891;46.884;17.436;2023-08-24T04:24:55;21.11;95.59
77592;DHT22;66891;46.884;17.436;2023-08-24T04:27:22;21.06;95.73
77592;DHT22;66891;46.884;17.436;2023-08-24T04:29:49;20.99;95.93
77592;DHT22;66891;46.884;17.436;2023-08-24T04:32:18;21.25;95.91
77592;DHT22;66891;46.884;17.436;2023-08-24T04:34:46;21.26;96.33
77592;DHT22;66891;46.884;17.436;2023-08-24T04:37:13;21.25;96.64
77592;DHT22;66891;46.884;17.436;2023-08-24T04:39:41;21.26;96.77
77592;DHT22;66891;46.884;17.436;2023-08-24T04:42:08;21.39;96.41
77592;DHT22;66891;46.884;17.436;2023-08-24T04:44:35;21.39;96.60
77592;DHT22;66891;46.884;17.436;2023-08-24T04:47:02;21.43;96.40
77592;DHT22;66891;46.884;17.436;2023-08-24T04:49:31;21.38;96.81
77592;DHT22;66891;46.884;17.436;2023-08-24T04:51:58;21.46;96.62
77592;DHT22;66891;46.884;17.436;2023-08-24T04:54:26;21.45;96.65
77592;DHT22;66891;46.884;17.436;2023-08-24T04:56:53;21.47;96.55
77592;DHT22;66891;46.884;17.436;2023-08-24T04:59:20;21.47;96.73
77592;DHT22;66891;46.884;17.436;2023-08-24T05:01:48;21.60;96.27
77592;DHT22;66891;46.884;17.436;2023-08-24T05:04:15;21.51;96.67
77592;DHT22;66891;46.884;17.436;2023-08-24T05:06:44;21.39;97.26
77592;DHT22;66891;46.884;17.436;2023-08-24T05:09:11;21.39;97.32
77592;DHT22;66891;46.884;17.436;2023-08-24T05:11:56;21.33;97.42
77592;DHT22;66891;46.884;17.436;2023-08-24T05:14:23;21.32;97.69
77592;DHT22;66891;46.884;17.436;2023-08-24T05:16:51;21.43;97.43
77592;DHT22;66891;46.884;17.436;2023-08-24T05:19:18;21.38;97.84
77592;DHT22;66891;46.884;17.436;2023-08-24T05:21:47;21.47;97.62
77592;DHT22;66891;46.884;17.436;2023-08-24T05:24:14;21.50;97.66
77592;DHT22;66891;46.884;17.436;2023-08-24T05:26:43;21.49;97.46
77592;DHT22;66891;46.884;17.436;2023-08-24T05:29:10;21.46;97.63
77592;DHT22;66891;46.884;17.436;2023-08-24T05:31:37;21.60;97.15
77592;DHT22;66891;46.884;17.436;2023-08-24T05:34:05;21.56;97.56
77592;DHT22;66891;46.884;17.436;2023-08-24T05:36:32;21.59;97.48
77592;DHT22;66891;46.884;17.436;2023-08-24T05:39:01;21.51;97.91
77592;DHT22;66891;46.884;17.436;2023-08-24T05:41:32;21.64;97.46
77592;DHT22;66891;46.884;17.436;2023-08-24T05:44:00;21.70;97.53
77592;DHT22;66891;46.884;17.436;2023-08-24T05:46:27;21.83;97.25
77592;DHT22;66891;46.884;17.436;2023-08-24T05:48:57;21.86;97.45
77592;DHT22;66891;46.884;17.436;2023-08-24T05:51:25;21.91;97.31
77592;DHT22;66891;46.884;17.436;2023-08-24T05:53:53;22.00;97.12
77592;DHT22;66891;46.884;17.436;2023-08-24T05:56:24;22.11;97.05
77592;DHT22;66891;46.884;17.436;2023-08-24T05:58:51;22.28;96.86
77592;DHT22;66891;46.884;17.436;2023-08-24T06:01:19;22.38;96.70
77592;DHT22;66891;46.884;17.436;2023-08-24T06:03:46;22.46;96.13
77592;DHT22;66891;46.884;17.436;2023-08-24T06:06:14;22.60;95.86
77592;DHT22;66891;46.884;17.436;2023-08-24T06:08:42;22.77;94.94
77592;DHT22;66891;46.884;17.436;2023-08-24T06:11:09;22.80;94.78
77592;DHT22;66891;46.884;17.436;2023-08-24T06:13:38;22.89;94.55
77592;DHT22;66891;46.884;17.436;2023-08-24T06:16:05;23.00;94.30
77592;DHT22;66891;46.884;17.436;2023-08-24T06:18:33;23.18;94.04
77592;DHT22;66891;46.884;17.436;2023-08-24T06:21:00;23.22;94.38
77592;DHT22;66891;46.884;17.436;2023-08-24T06:23:27;23.07;94.69
77592;DHT22;66891;46.884;17.436;2023-08-24T06:25:55;23.06;94.63
77592;DHT22;66891;46.884;17.436;2023-08-24T06:28:23;22.97;94.92
77592;DHT22;66891;46.884;17.436;2023-08-24T06:30:52;23.06;94.59
77592;DHT22;66891;46.884;17.436;2023-08-24T06:33:19;23.03;94.47
77592;DHT22;66891;46.884;17.436;2023-08-24T06:35:47;23.10;94.05
77592;DHT22;66891;46.884;17.436;2023-08-24T06:38:16;23.08;93.87
77592;DHT22;66891;46.884;17.436;2023-08-24T06:40:43;23.20;93.87
77592;DHT22;66891;46.884;17.436;2023-08-24T06:43:10;23.20;93.74
77592;DHT22;66891;46.884;17.436;2023-08-24T06:45:38;23.38;93.16
77592;DHT22;66891;46.884;17.436;2023-08-24T06:48:07;23.42;92.90
77592;DHT22;66891;46.884;17.436;2023-08-24T06:50:35;23.48;93.02
77592;DHT22;66891;46.884;17.436;2023-08-24T06:53:03;23.52;92.71
77592;DHT22;66891;46.884;17.436;2023-08-24T06:55:31;23.58;92.65
77592;DHT22;66891;46.884;17.436;2023-08-24T06:57:58;23.61;92.43
77592;DHT22;66891;46.884;17.436;2023-08-24T07:00:25;23.79;92.00
77592;DHT22;66891;46.884;17.436;2023-08-24T07:02:53;23.96;91.37
77592;DHT22;66891;46.884;17.436;2023-08-24T07:05:22;24.03;91.27
77592;DHT22;66891;46.884;17.436;2023-08-24T07:07:50;24.02;91.41
77592;DHT22;66891;46.884;17.436;2023-08-24T07:10:18;24.13;90.95
77592;DHT22;66891;46.884;17.436;2023-08-24T07:12:45;24.27;90.78
77592;DHT22;66891;46.884;17.436;2023-08-24T07:15:13;24.50;90.26
77592;DHT22;66891;46.884;17.436;2023-08-24T07:17:40;24.52;90.16
77592;DHT22;66891;46.884;17.436;2023-08-24T07:20:09;24.64;89.46
77592;DHT22;66891;46.884;17.436;2023-08-24T07:22:38;24.83;87.95
77592;DHT22;66891;46.884;17.436;2023-08-24T07:25:06;24.93;87.71
77592;DHT22;66891;46.884;17.436;2023-08-24T07:27:34;25.03;87.42
77592;DHT22;66891;46.884;17.436;2023-08-24T07:30:03;25.15;87.13
77592;DHT22;66891;46.884;17.436;2023-08-24T07:32:52;25.30;86.52
77592;DHT22;66891;46.884;17.436;2023-08-24T07:35:20;25.41;86.00
77592;DHT22;66891;46.884;17.436;2023-08-24T07:37:49;25.53;85.51
77592;DHT22;66891;46.884;17.436;2023-08-24T07:40:17;25.61;85.50
77592;DHT22;66891;46.884;17.436;2023-08-24T07:42:45;25.68;85.44
77592;DHT22;66891;46.884;17.436;2023-08-24T07:45:13;25.77;85.26
77592;DHT22;66891;46.884;17.436;2023-08-24T07:47:43;25.77;85.29
77592;DHT22;66891;46.884;17.436;2023-08-24T07:50:11;25.81;85.03
77592;DHT22;66891;46.884;17.436;2023-08-24T07:52:39;25.77;84.61
77592;DHT22;66891;46.884;17.436;2023-08-24T07:55:08;25.85;83.50
77592;DHT22;66891;46.884;17.436;2023-08-24T07:57:40;26.05;82.57
77592;DHT22;66891;46.884;17.436;2023-08-24T08:00:34;26.02;81.66
77592;DHT22;66891;46.884;17.436;2023-08-24T08:03:02;26.19;81.36
77592;DHT22;66891;46.884;17.436;2023-08-24T08:05:30;26.43;81.10
77592;DHT22;66891;46.884;17.436;2023-08-24T08:07:57;26.54;79.65
77592;DHT22;66891;46.884;17.436;2023-08-24T08:10:26;26.65;78.97
77592;DHT22;66891;46.884;17.436;2023-08-24T08:12:53;26.61;79.35
77592;DHT22;66891;46.884;17.436;2023-08-24T08:15:21;26.84;78.17
77592;DHT22;66891;46.884;17.436;2023-08-24T08:18:06;27.05;78.32
77592;DHT22;66891;46.884;17.436;2023-08-24T08:20:51;27.02;78.67
77592;DHT22;66891;46.884;17.436;2023-08-24T08:23:18;26.99;78.46
77592;DHT22;66891;46.884;17.436;2023-08-24T08:36:49;27.53;73.05
77592;DHT22;66891;46.884;17.436;2023-08-24T08:39:18;27.71;73.22
77592;DHT22;66891;46.884;17.436;2023-08-24T08:41:49;27.66;73.19
77592;DHT22;66891;46.884;17.436;2023-08-24T08:44:16;27.46;74.02
77592;DHT22;66891;46.884;17.436;2023-08-24T08:46:45;27.73;72.00
77592;DHT22;66891;46.884;17.436;2023-08-24T08:49:14;27.64;72.36
77592;DHT22;66891;46.884;17.436;2023-08-24T08:51:45;28.18;66.36
77592;DHT22;66891;46.884;17.436;2023-08-24T08:54:13;28.15;68.98
77592;DHT22;66891;46.884;17.436;2023-08-24T08:56:41;28.27;69.19
77592;DHT22;66891;46.884;17.436;2023-08-24T08:59:09;28.38;67.73
77592;DHT22;66891;46.884;17.436;2023-08-24T09:01:40;28.12;68.95
77592;DHT22;66891;46.884;17.436;2023-08-24T09:04:07;28.38;69.49
77592;DHT22;66891;46.884;17.436;2023-08-24T09:06:35;28.68;67.85
77592;DHT22;66891;46.884;17.436;2023-08-24T09:09:04;28.63;68.02
77592;DHT22;66891;46.884;17.436;2023-08-24T09:11:32;28.72;68.78
77592;DHT22;66891;46.884;17.436;2023-08-24T09:14:00;28.82;68.31
77592;DHT22;66891;46.884;17.436;2023-08-24T09:16:29;28.92;67.46
77592;DHT22;66891;46.884;17.436;2023-08-24T09:18:57;28.77;66.68
77592;DHT22;66891;46.884;17.436;2023-08-24T09:21:25;28.66;68.43
77592;DHT22;66891;46.884;17.436;2023-08-24T09:23:55;29.11;67.57
77592;DHT22;66891;46.884;17.436;2023-08-24T09:26:27;29.15;66.72
77592;DHT22;66891;46.884;17.436;2023-08-24T09:28:57;29.11;67.08
77592;DHT22;66891;46.884;17.436;2023-08-24T09:31:34;29.10;66.88
77592;DHT22;66891;46.884;17.436;2023-08-24T09:34:03;29.27;66.06
77592;DHT22;66891;46.884;17.436;2023-08-24T09:36:31;28.86;67.78
77592;DHT22;66891;46.884;17.436;2023-08-24T09:38:59;28.86;67.26
77592;DHT22;66891;46.884;17.436;2023-08-24T09:41:37;28.76;67.39
77592;DHT22;66891;46.884;17.436;2023-08-24T09:44:07;29.34;66.23
77592;DHT22;66891;46.884;17.436;2023-08-24T09:46:35;29.44;66.88
77592;DHT22;66891;46.884;17.436;2023-08-24T09:49:06;29.62;64.65
77592;DHT22;66891;46.884;17.436;2023-08-24T09:51:33;29.61;65.39
77592;DHT22;66891;46.884;17.436;2023-08-24T09:54:05;29.65;65.42
77592;DHT22;66891;46.884;17.436;2023-08-24T09:56:36;29.69;65.13
77592;DHT22;66891;46.884;17.436;2023-08-24T09:59:11;29.98;65.29
77592;DHT22;66891;46.884;17.436;2023-08-24T10:01:44;29.73;66.11
77592;DHT22;66891;46.884;17.436;2023-08-24T10:04:12;30.26;64.29
77592;DHT22;66891;46.884;17.436;2023-08-24T10:06:42;30.19;64.32
77592;DHT22;66891;46.884;17.436;2023-08-24T10:09:16;30.21;63.92
77592;DHT22;66891;46.884;17.436;2023-08-24T10:11:50;30.14;64.08
77592;DHT22;66891;46.884;17.436;2023-08-24T10:14:24;30.58;63.55
77592;DHT22;66891;46.884;17.436;2023-08-24T10:16:53;30.86;63.65
77592;DHT22;66891;46.884;17.436;2023-08-24T10:19:22;30.75;63.17
77592;DHT22;66891;46.884;17.436;2023-08-24T10:21:53;30.71;62.48
77592;DHT22;66891;46.884;17.436;2023-08-24T10:24:24;30.79;63.18
77592;DHT22;66891;46.884;17.436;2023-08-24T10:26:52;30.79;62.27
77592;DHT22;66891;46.884;17.436;2023-08-24T10:29:23;30.84;63.54
77592;DHT22;66891;46.884;17.436;2023-08-24T10:31:52;30.43;64.66
77592;DHT22;66891;46.884;17.436;2023-08-24T10:34:19;30.41;64.79
77592;DHT22;66891;46.884;17.436;2023-08-24T10:36:47;30.69;64.57
77592;DHT22;66891;46.884;17.436;2023-08-24T10:39:15;29.85;65.70
77592;DHT22;66891;46.884;17.436;2023-08-24T10:41:48;30.17;65.48
77592;DHT22;66891;46.884;17.436;2023-08-24T10:44:24;30.57;62.87
77592;DHT22;66891;46.884;17.436;2023-08-24T10:47:10;31.03;62.59
77592;DHT22;66891;46.884;17.436;2023-08-24T10:49:39;30.89;60.95
77592;DHT22;66891;46.884;17.436;2023-08-24T10:52:17;31.20;62.22
77592;DHT22;66891;46.884;17.436;2023-08-24T10:54:46;31.02;62.93
77592;DHT22;66891;46.884;17.436;2023-08-24T10:57:20;31.76;60.44
77592;DHT22;66891;46.884;17.436;2023-08-24T11:00:08;31.40;61.44
77592;DHT22;66891;46.884;17.436;2023-08-24T11:02:44;31.41;60.30
77592;DHT22;66891;46.884;17.436;2023-08-24T11:05:16;31.05;62.28
77592;DHT22;66891;46.884;17.436;2023-08-24T11:07:52;31.70;60.43
77592;DHT22;66891;46.884;17.436;2023-08-24T11:10:21;30.93;62.80
77592;DHT22;66891;46.884;17.436;2023-08-24T11:13:09;31.37;62.31
77592;DHT22;66891;46.884;17.436;2023-08-24T11:15:40;31.54;62.35
77592;DHT22;66891;46.884;17.436;2023-08-24T11:18:20;31.97;59.97
77592;DHT22;66891;46.884;17.436;2023-08-24T11:20:53;31.60;61.63
77592;DHT22;66891;46.884;17.436;2023-08-24T11:23:23;32.16;60.16
77592;DHT22;66891;46.884;17.436;2023-08-24T11:25:53;31.88;60.58
77592;DHT22;66891;46.884;17.436;2023-08-24T11:28:24;30.34;64.38
77592;DHT22;66891;46.884;17.436;2023-08-24T11:30:55;30.61;63.76
77592;DHT22;66891;46.884;17.436;2023-08-24T11:33:29;31.64;62.26
77592;DHT22;66891;46.884;17.436;2023-08-24T11:35:57;32.15;62.70
77592;DHT22;66891;46.884;17.436;2023-08-24T11:38:26;33.19;61.68
77592;DHT22;66891;46.884;17.436;2023-08-24T11:41:10;33.44;60.32
77592;DHT22;66891;46.884;17.436;2023-08-24T11:43:38;32.67;62.13
77592;DHT22;66891;46.884;17.436;2023-08-24T11:46:08;33.01;61.97
77592;DHT22;66891;46.884;17.436;2023-08-24T11:48:38;33.12;61.10
77592;DHT22;66891;46.884;17.436;2023-08-24T11:51:08;33.68;58.49
77592;DHT22;66891;46.884;17.436;2023-08-24T11:53:37;33.28;60.40
77592;DHT22;66891;46.884;17.436;2023-08-24T11:56:04;33.96;57.42
77592;DHT22;66891;46.884;17.436;2023-08-24T11:58:32;34.04;57.58
77592;DHT22;66891;46.884;17.436;2023-08-24T12:01:00;33.92;57.40
77592;DHT22;66891;46.884;17.436;2023-08-24T12:03:30;34.19;56.34
77592;DHT22;66891;46.884;17.436;2023-08-24T12:05:59;34.81;55.80
77592;DHT22;66891;46.884;17.436;2023-08-24T12:08:27;34.02;58.09
77592;DHT22;66891;46.884;17.436;2023-08-24T12:10:54;34.62;55.80
77592;DHT22;66891;46.884;17.436;2023-08-24T12:13:22;32.84;59.51
77592;DHT22;66891;46.884;17.436;2023-08-24T12:15:49;32.84;61.59
77592;DHT22;66891;46.884;17.436;2023-08-24T12:18:19;33.08;59.80
77592;DHT22;66891;46.884;17.436;2023-08-24T12:20:48;34.13;57.05
77592;DHT22;66891;46.884;17.436;2023-08-24T12:23:16;32.92;57.96
77592;DHT22;66891;46.884;17.436;2023-08-24T12:25:43;33.04;57.64
77592;DHT22;66891;46.884;17.436;2023-08-24T12:28:13;33.92;56.34
77592;DHT22;66891;46.884;17.436;2023-08-24T12:30:45;34.37;54.83
77592;DHT22;66891;46.884;17.436;2023-08-24T12:33:25;34.52;54.34
77592;DHT22;66891;46.884;17.436;2023-08-24T12:35:55;35.29;53.16
77592;DHT22;66891;46.884;17.436;2023-08-24T12:38:23;36.28;51.03
77592;DHT22;66891;46.884;17.436;2023-08-24T12:40:51;36.37;51.85
77592;DHT22;66891;46.884;17.436;2023-08-24T12:43:18;36.56;49.60
77592;DHT22;66891;46.884;17.436;2023-08-24T12:45:46;35.78;51.41
77592;DHT22;66891;46.884;17.436;2023-08-24T12:48:13;36.24;50.08
77592;DHT22;66891;46.884;17.436;2023-08-24T12:50:41;35.25;52.16
77592;DHT22;66891;46.884;17.436;2023-08-24T12:53:10;35.88;50.83
77592;DHT22;66891;46.884;17.436;2023-08-24T12:55:39;35.39;50.65
77592;DHT22;66891;46.884;17.436;2023-08-24T12:58:09;35.07;51.53
77592;DHT22;66891;46.884;17.436;2023-08-24T13:00:37;33.96;53.97
77592;DHT22;66891;46.884;17.436;2023-08-24T13:03:04;34.52;52.21
77592;DHT22;66891;46.884;17.436;2023-08-24T13:05:32;34.37;52.91
77592;DHT22;66891;46.884;17.436;2023-08-24T13:08:01;33.12;51.91
77592;DHT22;66891;46.884;17.436;2023-08-24T13:10:29;33.34;52.81
77592;DHT22;66891;46.884;17.436;2023-08-24T13:12:57;33.54;53.00
77592;DHT22;66891;46.884;17.436;2023-08-24T13:15:25;32.53;53.38
77592;DHT22;66891;46.884;17.436;2023-08-24T13:17:53;32.42;54.22
77592;DHT22;66891;46.884;17.436;2023-08-24T13:20:21;32.04;54.54
77592;DHT22;66891;46.884;17.436;2023-08-24T13:22:48;32.04;55.84
77592;DHT22;66891;46.884;17.436;2023-08-24T13:25:15;32.01;56.01
77592;DHT22;66891;46.884;17.436;2023-08-24T13:27:44;32.12;55.53
77592;DHT22;66891;46.884;17.436;2023-08-24T13:30:12;31.98;55.94
77592;DHT22;66891;46.884;17.436;2023-08-24T13:32:40;32.07;56.07
77592;DHT22;66891;46.884;17.436;2023-08-24T13:35:08;32.15;56.02
77592;DHT22;66891;46.884;17.436;2023-08-24T13:37:36;32.19;55.37
77592;DHT22;66891;46.884;17.436;2023-08-24T13:40:04;32.15;55.17
77592;DHT22;66891;46.884;17.436;2023-08-24T13:42:32;31.98;55.34
77592;DHT22;66891;46.884;17.436;2023-08-24T13:45:01;31.98;55.50
77592;DHT22;66891;46.884;17.436;2023-08-24T13:47:32;31.95;55.96
77592;DHT22;66891;46.884;17.436;2023-08-24T13:49:59;32.02;56.21
77592;DHT22;66891;46.884;17.436;2023-08-24T13:52:27;31.92;55.68
77592;DHT22;66891;46.884;17.436;2023-08-24T13:54:55;32.02;56.67
77592;DHT22;66891;46.884;17.436;2023-08-24T13:57:38;32.07;56.51
77592;DHT22;66891;46.884;17.436;2023-08-24T14:00:08;31.97;56.65
77592;DHT22;66891;46.884;17.436;2023-08-24T14:02:36;31.94;56.43
77592;DHT22;66891;46.884;17.436;2023-08-24T14:05:04;31.82;56.42
77592;DHT22;66891;46.884;17.436;2023-08-24T14:07:33;31.70;56.01
77592;DHT22;66891;46.884;17.436;2023-08-24T14:10:00;31.78;56.23
77592;DHT22;66891;46.884;17.436;2023-08-24T14:12:32;31.94;55.10
77592;DHT22;66891;46.884;17.436;2023-08-24T14:14:59;31.87;55.11
77592;DHT22;66891;46.884;17.436;2023-08-24T14:17:28;31.74;55.89
77592;DHT22;66891;46.884;17.436;2023-08-24T14:19:56;31.71;56.14
77592;DHT22;66891;46.884;17.436;2023-08-24T14:22:25;31.77;56.63
77592;DHT22;66891;46.884;17.436;2023-08-24T14:24:52;31.71;55.22
77592;DHT22;66891;46.884;17.436;2023-08-24T14:27:19;31.63;55.59
77592;DHT22;66891;46.884;17.436;2023-08-24T14:29:47;31.66;55.49
77592;DHT22;66891;46.884;17.436;2023-08-24T14:32:14;31.74;56.25
77592;DHT22;66891;46.884;17.436;2023-08-24T14:34:43;31.82;55.97
77592;DHT22;66891;46.884;17.436;2023-08-24T14:37:10;31.73;54.82
77592;DHT22;66891;46.884;17.436;2023-08-24T14:39:37;31.50;55.96
77592;DHT22;66891;46.884;17.436;2023-08-24T14:42:05;31.51;56.07
77592;DHT22;66891;46.884;17.436;2023-08-24T14:44:32;31.41;55.98
77592;DHT22;66891;46.884;17.436;2023-08-24T14:47:00;31.29;56.61
77592;DHT22;66891;46.884;17.436;2023-08-24T14:49:28;31.26;56.62
77592;DHT22;66891;46.884;17.436;2023-08-24T14:51:57;31.33;57.48
77592;DHT22;66891;46.884;17.436;2023-08-24T14:54:24;31.39;57.01
77592;DHT22;66891;46.884;17.436;2023-08-24T14:56:51;31.32;56.67
77592;DHT22;66891;46.884;17.436;2023-08-24T14:59:18;31.29;56.87
77592;DHT22;66891;46.884;17.436;2023-08-24T15:01:46;31.32;56.53
77592;DHT22;66891;46.884;17.436;2023-08-24T15:04:13;31.22;57.82
77592;DHT22;66891;46.884;17.436;2023-08-24T15:06:40;31.34;57.52
77592;DHT22;66891;46.884;17.436;2023-08-24T15:09:09;31.36;57.33
77592;DHT22;66891;46.884;17.436;2023-08-24T15:11:37;31.44;56.86
77592;DHT22;66891;46.884;17.436;2023-08-24T15:14:04;31.29;56.93
77592;DHT22;66891;46.884;17.436;2023-08-24T15:16:31;31.06;57.88
77592;DHT22;66891;46.884;17.436;2023-08-24T15:18:58;31.12;58.21
77592;DHT22;66891;46.884;17.436;2023-08-24T15:21:26;31.16;57.87
77592;DHT22;66891;46.884;17.436;2023-08-24T15:23:55;31.02;57.89
77592;DHT22;66891;46.884;17.436;2023-08-24T15:26:24;31.05;57.87
77592;DHT22;66891;46.884;17.436;2023-08-24T15:29:08;31.08;57.47
77592;DHT22;66891;46.884;17.436;2023-08-24T15:31:39;31.05;57.54
77592;DHT22;66891;46.884;17.436;2023-08-24T15:34:07;30.95;57.76
77592;DHT22;66891;46.884;17.436;2023-08-24T15:36:34;31.02;57.60
77592;DHT22;66891;46.884;17.436;2023-08-24T15:39:02;30.93;58.92